Falken — SBCH — position and weather

sailwx.info

Track history (hours):
 
Tides and Currents Weather Stations Pressure Air Temp Water Temp Dewpoint Dewpoint Depression Visibility Wind Speed Wind Dir Waves Ship Positions

Falken (Sweden)

Last reported at 2017-Apr-24 15:31 UTC. Time now 2017-Apr-24 15:35 UTC.
Position N 37°09' W 025°11'.

Length 40 m; draft 4.2 m.

Type: Sailing vessel. MMSI: 265070000.

Date/timePositionNaut miles runAvg speedWind from/ knotsBaromVisibWave heightAir tempDewpointWater temp
2017-Apr-24 15:31N 37°09' W 025°11'0 0.4
2017-Apr-24 15:00N 37°09' W 025°12'0 0.4
2017-Apr-24 14:30N 37°09' W 025°12'2 2.3
2017-Apr-24 13:30N 37°07' W 025°14'2 3.1
2017-Apr-24 13:00N 37°06' W 025°15'2 3.9
2017-Apr-24 12:30N 37°04' W 025°16'2 4.7
2017-Apr-24 12:00N 37°02' W 025°15'2 5.0
2017-Apr-24 11:30N 36°60' W 025°14'3 5.5
2017-Apr-24 11:00N 36°57' W 025°13'3 6.4
2017-Apr-24 10:31N 36°56' W 025°09'1 1.5
2017-Apr-24 09:57N 36°57' W 025°09'0 0.0
2017-Apr-24 09:28N 36°57' W 025°09'0 0.0
2017-Apr-24 09:00N 36°57' W 025°09'0 0.0
2017-Apr-24 08:28N 36°57' W 025°09'0 0.0
2017-Apr-24 07:58N 36°57' W 025°09'0 0.0
2017-Apr-24 07:30N 36°57' W 025°09'0 0.0
2017-Apr-24 06:58N 36°57' W 025°09'0 0.0
2017-Apr-24 06:28N 36°57' W 025°09'0 0.0
2017-Apr-24 06:00N 36°57' W 025°09'0 0.0
2017-Apr-24 05:28N 36°57' W 025°09'0 0.0
2017-Apr-24 04:58N 36°57' W 025°09'0 0.0
2017-Apr-24 04:30N 36°57' W 025°09'0 0.0
2017-Apr-24 03:57N 36°57' W 025°09'0 0.0
2017-Apr-24 03:28N 36°57' W 025°09'0 0.0
2017-Apr-24 03:00N 36°57' W 025°09'0 0.0
2017-Apr-24 02:31N 36°57' W 025°09'0 0.0
2017-Apr-24 01:58N 36°57' W 025°09'0 0.0
2017-Apr-24 01:30N 36°57' W 025°09'0 0.0
2017-Apr-24 01:00N 36°57' W 025°09'0 0.0
2017-Apr-24 00:31N 36°57' W 025°09'0 0.0
2017-Apr-23 23:58N 36°57' W 025°09'0 0.0
2017-Apr-23 23:30N 36°57' W 025°09'0 0.0
2017-Apr-23 22:57N 36°57' W 025°09'0 0.0
2017-Apr-23 22:28N 36°57' W 025°09'0 0.0
2017-Apr-23 22:00N 36°57' W 025°09'0 0.0
2017-Apr-23 21:28N 36°57' W 025°09'0 0.0
2017-Apr-23 20:58N 36°57' W 025°09'0 0.0
2017-Apr-23 20:30N 36°57' W 025°09'0 0.0
2017-Apr-23 19:57N 36°57' W 025°09'0 0.0
2017-Apr-23 19:28N 36°57' W 025°09'0 0.0
2017-Apr-23 19:00N 36°57' W 025°09'0 0.0
2017-Apr-23 18:31N 36°57' W 025°09'0 0.0
2017-Apr-23 17:58N 36°57' W 025°09'0 0.0
2017-Apr-23 17:30N 36°57' W 025°09'0 0.0
2017-Apr-23 16:58N 36°57' W 025°09'0 0.0
2017-Apr-23 16:27N 36°57' W 025°09'0 0.0
2017-Apr-23 15:58N 36°57' W 025°09'0 0.0
2017-Apr-23 15:30N 36°57' W 025°09'0 0.0
2017-Apr-23 14:57N 36°57' W 025°09'0 0.0
2017-Apr-23 14:00N 36°57' W 025°09'0 0.0
2017-Apr-23 13:31N 36°57' W 025°09'0 0.0
2017-Apr-23 12:58N 36°57' W 025°09'0 0.0
2017-Apr-23 12:30N 36°57' W 025°09'0 0.0
2017-Apr-23 12:01N 36°57' W 025°09'0 0.0
2017-Apr-23 11:28N 36°57' W 025°09'0 0.0
2017-Apr-23 11:00N 36°57' W 025°09'0 0.0
2017-Apr-23 10:31N 36°57' W 025°09'0 0.0
2017-Apr-23 09:58N 36°57' W 025°09'0 0.0
2017-Apr-23 09:30N 36°57' W 025°09'0 0.0
2017-Apr-23 09:01N 36°57' W 025°09'0 0.0
2017-Apr-23 08:28N 36°57' W 025°09'0 0.0
2017-Apr-23 08:00N 36°57' W 025°09'0 0.0
2017-Apr-23 07:31N 36°57' W 025°09'0 0.0
2017-Apr-23 06:58N 36°57' W 025°09'0 0.0
2017-Apr-23 06:28N 36°57' W 025°09'0 0.0
2017-Apr-23 06:01N 36°57' W 025°09'0 0.0
2017-Apr-23 05:25N 36°57' W 025°09'0 0.0
2017-Apr-23 04:58N 36°57' W 025°09'0 0.0
2017-Apr-23 04:31N 36°57' W 025°09'0 0.0
2017-Apr-23 03:58N 36°57' W 025°09'0 0.0
2017-Apr-23 03:28N 36°57' W 025°09'0 0.0
2017-Apr-23 03:01N 36°57' W 025°09'0 0.0
2017-Apr-23 02:28N 36°57' W 025°09'0 0.0
2017-Apr-23 01:58N 36°57' W 025°09'0 0.0
2017-Apr-23 01:30N 36°57' W 025°09'0 0.0
2017-Apr-23 00:58N 36°57' W 025°09'0 0.0
2017-Apr-23 00:28N 36°57' W 025°09'0 0.0
2017-Apr-23 00:00N 36°57' W 025°09'0 0.0
2017-Apr-22 23:28N 36°57' W 025°09'0 0.0
2017-Apr-22 22:58N 36°57' W 025°09'0 0.0
2017-Apr-22 22:28N 36°57' W 025°09'0 0.0
2017-Apr-22 21:57N 36°57' W 025°09'0 0.0
2017-Apr-22 21:28N 36°57' W 025°09'0 0.0
2017-Apr-22 20:58N 36°57' W 025°09'0 0.0
2017-Apr-22 20:30N 36°57' W 025°09'0 0.0
2017-Apr-22 19:57N 36°57' W 025°09'0 0.0
2017-Apr-22 19:28N 36°57' W 025°09'0 0.0
2017-Apr-22 19:00N 36°57' W 025°09'0 0.0
2017-Apr-22 18:27N 36°57' W 025°09'0 0.0
2017-Apr-22 17:58N 36°57' W 025°09'0 0.0
2017-Apr-22 17:28N 36°57' W 025°09'0 0.0
2017-Apr-22 17:00N 36°57' W 025°09'0 0.0
2017-Apr-22 16:28N 36°57' W 025°09'0 0.0
2017-Apr-22 15:58N 36°57' W 025°09'0 0.0
2017-Apr-22 15:30N 36°57' W 025°09'0 0.0
2017-Apr-22 15:01N 36°57' W 025°09'0 0.0
2017-Apr-22 14:28N 36°57' W 025°09'0 0.0
2017-Apr-22 13:30N 36°57' W 025°09'0 0.0
2017-Apr-22 13:00N 36°57' W 025°09'0 0.0
2017-Apr-22 12:30N 36°57' W 025°09'0 0.0
2017-Apr-22 12:00N 36°57' W 025°09'0 0.0
2017-Apr-22 11:30N 36°57' W 025°09'0 0.0
2017-Apr-22 11:00N 36°57' W 025°09'0 0.2
2017-Apr-22 10:30N 36°57' W 025°09'0 0.2
2017-Apr-22 10:00N 36°57' W 025°09'1 2.1
2017-Apr-22 09:30N 36°55' W 025°09'0 0.9
2017-Apr-22 09:00N 36°55' W 025°09'0 0.9
2017-Apr-22 08:30N 36°55' W 025°08'1 1.2
2017-Apr-22 08:00N 36°56' W 025°08'1 1.0
2017-Apr-22 07:30N 36°55' W 025°07'1 1.4
2017-Apr-22 07:00N 36°55' W 025°07'2 4.9
2017-Apr-22 06:30N 36°53' W 025°05'2 4.9
2017-Apr-22 06:00N 36°51' W 025°03'2 4.6
2017-Apr-22 05:31N 36°49' W 025°01'2 4.2
2017-Apr-22 05:00N 36°47' W 025°00'2 3.5
2017-Apr-22 04:30N 36°46' W 024°59'2 3.5
2017-Apr-22 04:01N 36°44' W 024°58'2 3.3
2017-Apr-22 03:30N 36°43' W 024°57'2 3.3
2017-Apr-22 03:00N 36°41' W 024°55'2 3.4
2017-Apr-22 02:30N 36°40' W 024°54'2 3.2
2017-Apr-22 02:00N 36°39' W 024°53'2 3.4
2017-Apr-22 01:30N 36°37' W 024°52'2 3.7
2017-Apr-22 01:00N 36°36' W 024°51'2 4.6
2017-Apr-22 00:30N 36°34' W 024°49'2 4.3
2017-Apr-22 00:00N 36°32' W 024°48'2 3.9
2017-Apr-21 23:30N 36°30' W 024°46'3 5.0
2017-Apr-21 23:00N 36°28' W 024°45'3 6.0
2017-Apr-21 22:30N 36°26' W 024°43'3 6.2
2017-Apr-21 22:00N 36°23' W 024°41'3 6.4
2017-Apr-21 21:30N 36°20' W 024°39'3 6.3
2017-Apr-21 21:00N 36°17' W 024°37'3 6.5
2017-Apr-21 20:30N 36°15' W 024°36'3 6.7
2017-Apr-21 20:01N 36°12' W 024°34'3 5.0
2017-Apr-21 19:30N 36°09' W 024°32'1 1.3
2017-Apr-21 19:00N 36°09' W 024°32'1 1.1
2017-Apr-21 18:30N 36°10' W 024°31'1 1.8
2017-Apr-21 18:00N 36°09' W 024°30'3 6.2
2017-Apr-21 17:30N 36°06' W 024°29'3 6.0
2017-Apr-21 17:00N 36°04' W 024°27'4 8.0
2017-Apr-21 16:31N 36°00' W 024°25'2 4.0
2017-Apr-21 15:59N 35°59' W 024°22'2 4.1
2017-Apr-21 15:31N 35°58' W 024°20'1 2.0
2017-Apr-21 14:50N 35°58' W 024°19'1 2.0
2017-Apr-21 14:20N 35°59' W 024°17'1 1.8
2017-Apr-21 13:30N 35°59' W 024°16'1 1.1
2017-Apr-21 12:33N 35°59' W 024°14'1 1.4
2017-Apr-21 12:10N 35°59' W 024°14'0 1.4
2017-Apr-21 11:59N 35°59' W 024°13'3 1.5
2017-Apr-21 10:15N 36°00' W 024°10'1 1.6
2017-Apr-21 09:46N 36°00' W 024°09'0 1.8
2017-Apr-21 09:30N 36°01' W 024°09'1 1.8
2017-Apr-21 09:00N 36°01' W 024°08'1 1.5
2017-Apr-21 08:29N 36°02' W 024°07'0 0.9
2017-Apr-21 07:59N 36°02' W 024°07'1 1.8
2017-Apr-21 07:30N 36°02' W 024°06'1 1.1
2017-Apr-21 06:47N 36°02' W 024°05'1 2.8
2017-Apr-21 06:25N 36°01' W 024°04'3 5.4
2017-Apr-21 05:48N 36°01' W 024°00'7 4.7
2017-Apr-21 04:23N 36°01' W 023°52'  
2017-Apr-17 18:17N 32°52' W 017°45'2 5.8
2017-Apr-17 18:00N 32°51' W 017°44'3 5.7
2017-Apr-17 17:28N 32°50' W 017°40'24 4.4
2017-Apr-17 12:01N 32°40' W 017°14'0 5.5
2017-Apr-17 11:59N 32°40' W 017°14'3 5.1
2017-Apr-17 11:25N 32°40' W 017°10'2 6.1
2017-Apr-17 11:00N 32°39' W 017°08'4 8.0
2017-Apr-17 10:30N 32°37' W 017°03'7 0.3
2017-Apr-16 09:00N 32°38' W 016°55'4 0.3
2017-Apr-15 20:04N 32°36' W 016°51'1 7.9
2017-Apr-15 19:56N 32°35' W 016°50'3 7.4
2017-Apr-15 19:28N 32°34' W 016°46'4 7.9
2017-Apr-15 19:00N 32°32' W 016°42'3 2.5
2017-Apr-15 17:43N 32°29' W 016°42'1 4.0
2017-Apr-15 17:30N 32°28' W 016°41'2 5.0
2017-Apr-15 17:00N 32°26' W 016°41'2 4.7
2017-Apr-15 16:30N 32°24' W 016°41'3 5.1
2017-Apr-15 16:00N 32°21' W 016°40'68 4.1
2017-Apr-14 23:17N 31°17' W 016°12'1 3.6
2017-Apr-14 23:00N 31°16' W 016°12'6 3.5
2017-Apr-14 21:20N 31°10' W 016°12'2 2.7
2017-Apr-14 20:31N 31°08' W 016°12'0 2.6
2017-Apr-14 20:24N 31°08' W 016°12'  
Track history (hours):
 
Tides and Currents Weather Stations Pressure Air Temp Water Temp Dewpoint Dewpoint Depression Visibility Wind Speed Wind Dir Waves Ship Positions

Falken (Sweden)

Last reported at 2017-Apr-24 15:31 UTC. Time now 2017-Apr-24 15:35 UTC.
Position N 37°09' W 025°11'.

Length 40 m; draft 4.2 m.

Type: Sailing vessel. MMSI: 265070000.

Date/timePositionNaut miles runAvg speedWind from/ knotsBaromVisibWave heightAir tempDewpointWater temp
2017-Apr-24 15:31N 37°09' W 025°11'0 0.4
2017-Apr-24 15:00N 37°09' W 025°12'0 0.4
2017-Apr-24 14:30N 37°09' W 025°12'2 2.3
2017-Apr-24 13:30N 37°07' W 025°14'2 3.1
2017-Apr-24 13:00N 37°06' W 025°15'2 3.9
2017-Apr-24 12:30N 37°04' W 025°16'2 4.7
2017-Apr-24 12:00N 37°02' W 025°15'2 5.0
2017-Apr-24 11:30N 36°60' W 025°14'3 5.5
2017-Apr-24 11:00N 36°57' W 025°13'3 6.4
2017-Apr-24 10:31N 36°56' W 025°09'1 1.5
2017-Apr-24 09:57N 36°57' W 025°09'0 0.0
2017-Apr-24 09:28N 36°57' W 025°09'0 0.0
2017-Apr-24 09:00N 36°57' W 025°09'0 0.0
2017-Apr-24 08:28N 36°57' W 025°09'0 0.0
2017-Apr-24 07:58N 36°57' W 025°09'0 0.0
2017-Apr-24 07:30N 36°57' W 025°09'0 0.0
2017-Apr-24 06:58N 36°57' W 025°09'0 0.0
2017-Apr-24 06:28N 36°57' W 025°09'0 0.0
2017-Apr-24 06:00N 36°57' W 025°09'0 0.0
2017-Apr-24 05:28N 36°57' W 025°09'0 0.0
2017-Apr-24 04:58N 36°57' W 025°09'0 0.0
2017-Apr-24 04:30N 36°57' W 025°09'0 0.0
2017-Apr-24 03:57N 36°57' W 025°09'0 0.0
2017-Apr-24 03:28N 36°57' W 025°09'0 0.0
2017-Apr-24 03:00N 36°57' W 025°09'0 0.0
2017-Apr-24 02:31N 36°57' W 025°09'0 0.0
2017-Apr-24 01:58N 36°57' W 025°09'0 0.0
2017-Apr-24 01:30N 36°57' W 025°09'0 0.0
2017-Apr-24 01:00N 36°57' W 025°09'0 0.0
2017-Apr-24 00:31N 36°57' W 025°09'0 0.0
2017-Apr-23 23:58N 36°57' W 025°09'0 0.0
2017-Apr-23 23:30N 36°57' W 025°09'0 0.0
2017-Apr-23 22:57N 36°57' W 025°09'0 0.0
2017-Apr-23 22:28N 36°57' W 025°09'0 0.0
2017-Apr-23 22:00N 36°57' W 025°09'0 0.0
2017-Apr-23 21:28N 36°57' W 025°09'0 0.0
2017-Apr-23 20:58N 36°57' W 025°09'0 0.0
2017-Apr-23 20:30N 36°57' W 025°09'0 0.0
2017-Apr-23 19:57N 36°57' W 025°09'0 0.0
2017-Apr-23 19:28N 36°57' W 025°09'0 0.0
2017-Apr-23 19:00N 36°57' W 025°09'0 0.0
2017-Apr-23 18:31N 36°57' W 025°09'0 0.0
2017-Apr-23 17:58N 36°57' W 025°09'0 0.0
2017-Apr-23 17:30N 36°57' W 025°09'0 0.0
2017-Apr-23 16:58N 36°57' W 025°09'0 0.0
2017-Apr-23 16:27N 36°57' W 025°09'0 0.0
2017-Apr-23 15:58N 36°57' W 025°09'0 0.0
2017-Apr-23 15:30N 36°57' W 025°09'0 0.0
2017-Apr-23 14:57N 36°57' W 025°09'0 0.0
2017-Apr-23 14:00N 36°57' W 025°09'0 0.0
2017-Apr-23 13:31N 36°57' W 025°09'0 0.0
2017-Apr-23 12:58N 36°57' W 025°09'0 0.0
2017-Apr-23 12:30N 36°57' W 025°09'0 0.0
2017-Apr-23 12:01N 36°57' W 025°09'0 0.0
2017-Apr-23 11:28N 36°57' W 025°09'0 0.0
2017-Apr-23 11:00N 36°57' W 025°09'0 0.0
2017-Apr-23 10:31N 36°57' W 025°09'0 0.0
2017-Apr-23 09:58N 36°57' W 025°09'0 0.0
2017-Apr-23 09:30N 36°57' W 025°09'0 0.0
2017-Apr-23 09:01N 36°57' W 025°09'0 0.0
2017-Apr-23 08:28N 36°57' W 025°09'0 0.0
2017-Apr-23 08:00N 36°57' W 025°09'0 0.0
2017-Apr-23 07:31N 36°57' W 025°09'0 0.0
2017-Apr-23 06:58N 36°57' W 025°09'0 0.0
2017-Apr-23 06:28N 36°57' W 025°09'0 0.0
2017-Apr-23 06:01N 36°57' W 025°09'0 0.0
2017-Apr-23 05:25N 36°57' W 025°09'0 0.0
2017-Apr-23 04:58N 36°57' W 025°09'0 0.0
2017-Apr-23 04:31N 36°57' W 025°09'0 0.0
2017-Apr-23 03:58N 36°57' W 025°09'0 0.0
2017-Apr-23 03:28N 36°57' W 025°09'0 0.0
2017-Apr-23 03:01N 36°57' W 025°09'0 0.0
2017-Apr-23 02:28N 36°57' W 025°09'0 0.0
2017-Apr-23 01:58N 36°57' W 025°09'0 0.0
2017-Apr-23 01:30N 36°57' W 025°09'0 0.0
2017-Apr-23 00:58N 36°57' W 025°09'0 0.0
2017-Apr-23 00:28N 36°57' W 025°09'0 0.0
2017-Apr-23 00:00N 36°57' W 025°09'0 0.0
2017-Apr-22 23:28N 36°57' W 025°09'0 0.0
2017-Apr-22 22:58N 36°57' W 025°09'0 0.0
2017-Apr-22 22:28N 36°57' W 025°09'0 0.0
2017-Apr-22 21:57N 36°57' W 025°09'0 0.0
2017-Apr-22 21:28N 36°57' W 025°09'0 0.0
2017-Apr-22 20:58N 36°57' W 025°09'0 0.0
2017-Apr-22 20:30N 36°57' W 025°09'0 0.0
2017-Apr-22 19:57N 36°57' W 025°09'0 0.0
2017-Apr-22 19:28N 36°57' W 025°09'0 0.0
2017-Apr-22 19:00N 36°57' W 025°09'0 0.0
2017-Apr-22 18:27N 36°57' W 025°09'0 0.0
2017-Apr-22 17:58N 36°57' W 025°09'0 0.0
2017-Apr-22 17:28N 36°57' W 025°09'0 0.0
2017-Apr-22 17:00N 36°57' W 025°09'0 0.0
2017-Apr-22 16:28N 36°57' W 025°09'0 0.0
2017-Apr-22 15:58N 36°57' W 025°09'0 0.0
2017-Apr-22 15:30N 36°57' W 025°09'0 0.0
2017-Apr-22 15:01N 36°57' W 025°09'0 0.0
2017-Apr-22 14:28N 36°57' W 025°09'0 0.0
2017-Apr-22 13:30N 36°57' W 025°09'0 0.0
2017-Apr-22 13:00N 36°57' W 025°09'0 0.0
2017-Apr-22 12:30N 36°57' W 025°09'0 0.0
2017-Apr-22 12:00N 36°57' W 025°09'0 0.0
2017-Apr-22 11:30N 36°57' W 025°09'0 0.0
2017-Apr-22 11:00N 36°57' W 025°09'0 0.2
2017-Apr-22 10:30N 36°57' W 025°09'0 0.2
2017-Apr-22 10:00N 36°57' W 025°09'1 2.1
2017-Apr-22 09:30N 36°55' W 025°09'0 0.9
2017-Apr-22 09:00N 36°55' W 025°09'0 0.9
2017-Apr-22 08:30N 36°55' W 025°08'1 1.2
2017-Apr-22 08:00N 36°56' W 025°08'1 1.0
2017-Apr-22 07:30N 36°55' W 025°07'1 1.4
2017-Apr-22 07:00N 36°55' W 025°07'2 4.9
2017-Apr-22 06:30N 36°53' W 025°05'2 4.9
2017-Apr-22 06:00N 36°51' W 025°03'2 4.6
2017-Apr-22 05:31N 36°49' W 025°01'2 4.2
2017-Apr-22 05:00N 36°47' W 025°00'2 3.5
2017-Apr-22 04:30N 36°46' W 024°59'2 3.5
2017-Apr-22 04:01N 36°44' W 024°58'2 3.3
2017-Apr-22 03:30N 36°43' W 024°57'2 3.3
2017-Apr-22 03:00N 36°41' W 024°55'2 3.4
2017-Apr-22 02:30N 36°40' W 024°54'2 3.2
2017-Apr-22 02:00N 36°39' W 024°53'2 3.4
2017-Apr-22 01:30N 36°37' W 024°52'2 3.7
2017-Apr-22 01:00N 36°36' W 024°51'2 4.6
2017-Apr-22 00:30N 36°34' W 024°49'2 4.3
2017-Apr-22 00:00N 36°32' W 024°48'2 3.9
2017-Apr-21 23:30N 36°30' W 024°46'3 5.0
2017-Apr-21 23:00N 36°28' W 024°45'3 6.0
2017-Apr-21 22:30N 36°26' W 024°43'3 6.2
2017-Apr-21 22:00N 36°23' W 024°41'3 6.4
2017-Apr-21 21:30N 36°20' W 024°39'3 6.3
2017-Apr-21 21:00N 36°17' W 024°37'3 6.5
2017-Apr-21 20:30N 36°15' W 024°36'3 6.7
2017-Apr-21 20:01N 36°12' W 024°34'3 5.0
2017-Apr-21 19:30N 36°09' W 024°32'1 1.3
2017-Apr-21 19:00N 36°09' W 024°32'1 1.1
2017-Apr-21 18:30N 36°10' W 024°31'1 1.8
2017-Apr-21 18:00N 36°09' W 024°30'3 6.2
2017-Apr-21 17:30N 36°06' W 024°29'3 6.0
2017-Apr-21 17:00N 36°04' W 024°27'4 8.0
2017-Apr-21 16:31N 36°00' W 024°25'2 4.0
2017-Apr-21 15:59N 35°59' W 024°22'2 4.1
2017-Apr-21 15:31N 35°58' W 024°20'1 2.0
2017-Apr-21 14:50N 35°58' W 024°19'1 2.0
2017-Apr-21 14:20N 35°59' W 024°17'1 1.8
2017-Apr-21 13:30N 35°59' W 024°16'1 1.1
2017-Apr-21 12:33N 35°59' W 024°14'1 1.4
2017-Apr-21 12:10N 35°59' W 024°14'0 1.4
2017-Apr-21 11:59N 35°59' W 024°13'3 1.5
2017-Apr-21 10:15N 36°00' W 024°10'1 1.6
2017-Apr-21 09:46N 36°00' W 024°09'0 1.8
2017-Apr-21 09:30N 36°01' W 024°09'1 1.8
2017-Apr-21 09:00N 36°01' W 024°08'1 1.5
2017-Apr-21 08:29N 36°02' W 024°07'0 0.9
2017-Apr-21 07:59N 36°02' W 024°07'1 1.8
2017-Apr-21 07:30N 36°02' W 024°06'1 1.1
2017-Apr-21 06:47N 36°02' W 024°05'1 2.8
2017-Apr-21 06:25N 36°01' W 024°04'3 5.4
2017-Apr-21 05:48N 36°01' W 024°00'7 4.7
2017-Apr-21 04:23N 36°01' W 023°52'  
2017-Apr-17 18:17N 32°52' W 017°45'2 5.8
2017-Apr-17 18:00N 32°51' W 017°44'3 5.7
2017-Apr-17 17:28N 32°50' W 017°40'24 4.4
2017-Apr-17 12:01N 32°40' W 017°14'0 5.5
2017-Apr-17 11:59N 32°40' W 017°14'3 5.1
2017-Apr-17 11:25N 32°40' W 017°10'2 6.1
2017-Apr-17 11:00N 32°39' W 017°08'4 8.0
2017-Apr-17 10:30N 32°37' W 017°03'7 0.3
2017-Apr-16 09:00N 32°38' W 016°55'4 0.3
2017-Apr-15 20:04N 32°36' W 016°51'1 7.9
2017-Apr-15 19:56N 32°35' W 016°50'3 7.4
2017-Apr-15 19:28N 32°34' W 016°46'4 7.9
2017-Apr-15 19:00N 32°32' W 016°42'3 2.5
2017-Apr-15 17:43N 32°29' W 016°42'1 4.0
2017-Apr-15 17:30N 32°28' W 016°41'2 5.0
2017-Apr-15 17:00N 32°26' W 016°41'2 4.7
2017-Apr-15 16:30N 32°24' W 016°41'3 5.1
2017-Apr-15 16:00N 32°21' W 016°40'68 4.1
2017-Apr-14 23:17N 31°17' W 016°12'1 3.6
2017-Apr-14 23:00N 31°16' W 016°12'6 3.5
2017-Apr-14 21:20N 31°10' W 016°12'2 2.7
2017-Apr-14 20:31N 31°08' W 016°12'0 2.6
2017-Apr-14 20:24N 31°08' W 016°12'  

Dump ship's entire track history